createdAt,value
2022-10-28T00:01:35.065Z,-0.24
2022-10-28T00:04:04.151Z,-0.22
2022-10-28T00:06:35.555Z,-0.24
2022-10-28T00:09:06.987Z,-0.23
2022-10-28T00:11:38.574Z,-0.29
2022-10-28T00:14:08.558Z,-0.31
2022-10-28T00:16:38.765Z,-0.34
2022-10-28T00:19:09.288Z,-0.34
2022-10-28T00:21:39.620Z,-0.33
2022-10-28T00:24:10.329Z,-0.30
2022-10-28T00:26:42.811Z,-0.24
2022-10-28T00:29:15.264Z,-0.18
2022-10-28T00:31:44.483Z,-0.09
2022-10-28T00:34:16.882Z,-0.01
2022-10-28T00:36:47.624Z,0.07
2022-10-28T00:39:16.495Z,0.22
2022-10-28T00:41:48.288Z,0.32
2022-10-28T00:44:48.977Z,0.71
2022-10-28T00:47:29.763Z,1.12
2022-10-28T00:50:24.608Z,1.08
2022-10-28T00:53:00.200Z,1.15
2022-10-28T00:55:29.808Z,1.20
2022-10-28T00:58:01.541Z,1.43
2022-10-28T01:00:31.819Z,1.86
2022-10-28T01:03:00.945Z,2.15
2022-10-28T01:05:33.424Z,2.26
2022-10-28T01:08:04.739Z,2.44
2022-10-28T01:11:07.335Z,2.74
2022-10-28T01:13:38.807Z,2.92
2022-10-28T01:16:32.908Z,2.84
2022-10-28T01:19:25.962Z,2.80
2022-10-28T01:22:16.274Z,2.74
2022-10-28T01:25:03.426Z,2.74
2022-10-28T01:28:03.531Z,2.73
2022-10-28T01:31:14.009Z,2.75
2022-10-28T01:34:06.558Z,2.81
2022-10-28T01:36:59.018Z,2.94
2022-10-28T01:39:50.429Z,3.16
2022-10-28T01:43:03.628Z,3.40
2022-10-28T01:45:44.617Z,3.51
2022-10-28T01:48:22.757Z,3.67
2022-10-28T01:51:19.647Z,3.80
2022-10-28T01:53:51.862Z,3.95
2022-10-28T01:56:30.019Z,4.13
2022-10-28T01:59:01.662Z,4.30
2022-10-28T02:01:32.766Z,4.25
2022-10-28T02:04:03.265Z,4.11
2022-10-28T02:06:35.329Z,3.94
2022-10-28T02:09:04.279Z,3.89
2022-10-28T02:11:46.863Z,3.84
2022-10-28T02:14:54.455Z,3.67
2022-10-28T02:17:29.285Z,3.72
2022-10-28T02:20:28.145Z,3.82
2022-10-28T02:23:19.950Z,4.01
2022-10-28T02:26:03.037Z,4.06
2022-10-28T02:28:57.273Z,4.13
2022-10-28T02:31:31.381Z,4.05
2022-10-28T02:34:09.795Z,3.96
2022-10-28T02:36:43.559Z,3.94
2022-10-28T02:39:12.805Z,3.97
2022-10-28T02:41:56.799Z,3.99
2022-10-28T02:44:32.032Z,3.99
2022-10-28T02:47:07.722Z,4.00
2022-10-28T02:49:40.618Z,4.15
2022-10-28T02:52:10.749Z,4.28
2022-10-28T02:54:59.165Z,4.23
2022-10-28T02:57:34.960Z,4.50
2022-10-28T03:00:09.706Z,4.70
2022-10-28T03:02:39.300Z,4.95
2022-10-28T03:05:09.078Z,5.42
2022-10-28T03:07:37.858Z,6.17
2022-10-28T03:10:07.317Z,6.99
2022-10-28T03:12:36.643Z,7.69
2022-10-28T03:15:05.953Z,8.26
2022-10-28T03:17:34.805Z,8.93
2022-10-28T03:20:03.697Z,9.54
2022-10-28T03:22:32.601Z,10.00
2022-10-28T03:25:01.385Z,10.34
2022-10-28T03:27:33.688Z,10.91
2022-10-28T03:30:02.628Z,11.59
2022-10-28T03:32:32.687Z,12.09
2022-10-28T03:35:01.458Z,12.41
2022-10-28T03:37:32.361Z,12.47
2022-10-28T03:40:03.096Z,12.56
2022-10-28T03:42:35.414Z,12.95
2022-10-28T03:49:33.993Z,16.29
2022-10-28T03:52:02.584Z,16.75
2022-10-28T03:54:31.279Z,17.21
2022-10-28T03:56:59.906Z,17.69
2022-10-28T03:59:28.650Z,18.28
2022-10-28T04:01:57.596Z,18.56
2022-10-28T04:04:29.852Z,19.00
2022-10-28T04:06:59.572Z,18.75
2022-10-28T04:09:28.127Z,18.05
2022-10-28T04:11:56.780Z,18.08
2022-10-28T04:14:25.474Z,18.56
2022-10-28T04:16:54.210Z,19.48
2022-10-28T04:19:22.825Z,20.22
2022-10-28T04:21:51.478Z,20.59
2022-10-28T04:24:20.130Z,21.05
2022-10-28T04:26:48.809Z,21.44
2022-10-28T04:29:17.596Z,21.84
2022-10-28T04:31:48.671Z,22.38
2022-10-28T04:34:20.239Z,22.69
2022-10-28T04:36:48.840Z,23.05
2022-10-28T04:39:18.070Z,23.75
2022-10-28T04:41:46.997Z,24.25
2022-10-28T04:44:15.754Z,24.68
2022-10-28T04:46:44.445Z,25.13
2022-10-28T04:49:13.094Z,25.51
2022-10-28T04:51:41.849Z,25.71
2022-10-28T04:54:10.479Z,25.89
2022-10-28T04:56:39.108Z,25.80
2022-10-28T04:59:07.731Z,25.53
2022-10-28T05:01:37.816Z,25.85
2022-10-28T05:04:06.778Z,26.24
2022-10-28T05:06:35.462Z,25.82
2022-10-28T05:09:04.430Z,25.55
2022-10-28T05:11:33.213Z,25.29
2022-10-28T05:14:01.875Z,24.74
2022-10-28T05:16:30.546Z,24.23
2022-10-28T05:18:59.416Z,23.50
2022-10-28T05:21:28.260Z,23.21
2022-10-28T05:23:56.910Z,23.31
2022-10-28T05:26:26.026Z,23.25
2022-10-28T05:28:54.632Z,23.26
2022-10-28T05:31:23.242Z,22.98
2022-10-28T05:33:51.896Z,23.21
2022-10-28T05:36:20.587Z,24.27
2022-10-28T05:38:50.196Z,25.20
2022-10-28T05:41:18.792Z,25.64
2022-10-28T05:43:47.378Z,26.18
2022-10-28T05:46:15.983Z,26.57
2022-10-28T05:48:44.690Z,26.48
2022-10-28T05:51:13.283Z,26.56
2022-10-28T05:53:44.996Z,26.73
2022-10-28T05:56:13.744Z,26.66
2022-10-28T05:58:42.525Z,26.63
2022-10-28T06:01:11.811Z,26.23
2022-10-28T06:03:40.954Z,26.15
2022-10-28T06:06:09.640Z,26.48
2022-10-28T06:08:38.457Z,26.61
2022-10-28T06:11:05.660Z,26.95
2022-10-28T06:13:34.277Z,27.31
2022-10-28T06:16:03.101Z,27.60
2022-10-28T06:18:32.221Z,27.13
2022-10-28T06:21:01.001Z,26.17
2022-10-28T06:23:29.851Z,25.35
2022-10-28T06:26:00.873Z,25.41
2022-10-28T06:28:30.517Z,24.50
2022-10-28T06:31:04.336Z,23.72
2022-10-28T06:33:33.439Z,23.04
2022-10-28T06:36:02.567Z,22.86
2022-10-28T06:38:31.286Z,22.95
2022-10-28T06:40:59.919Z,23.36
2022-10-28T06:43:28.680Z,23.83
2022-10-28T06:46:01.671Z,23.95
2022-10-28T06:48:32.435Z,24.01
2022-10-28T06:51:01.150Z,24.40
2022-10-28T06:53:29.870Z,24.27
2022-10-28T06:55:59.096Z,24.01
2022-10-28T06:58:28.558Z,23.02
2022-10-28T07:00:57.529Z,21.75
2022-10-28T07:03:26.480Z,21.19
2022-10-28T07:05:55.944Z,20.53
2022-10-28T07:08:24.617Z,19.42
2022-10-28T07:10:57.775Z,19.21
2022-10-28T07:13:27.597Z,18.99
2022-10-28T07:15:57.976Z,17.94
2022-10-28T07:18:28.858Z,16.76
2022-10-28T07:21:02.112Z,15.37
2022-10-28T07:23:34.751Z,14.02
2022-10-28T07:26:03.372Z,12.77
2022-10-28T07:28:32.600Z,12.03
2022-10-28T07:31:03.075Z,11.39
2022-10-28T07:33:31.931Z,10.74
2022-10-28T07:36:03.153Z,10.49
2022-10-28T07:38:32.227Z,12.02
2022-10-28T07:41:05.873Z,14.23
2022-10-28T07:43:40.819Z,15.76
2022-10-28T07:46:10.197Z,16.70
2022-10-28T07:48:39.027Z,17.39
2022-10-28T07:51:09.684Z,17.83
2022-10-28T07:53:39.394Z,17.77
2022-10-28T07:56:10.887Z,17.27
2022-10-28T07:58:40.034Z,17.27
2022-10-28T08:01:10.894Z,17.52
2022-10-28T08:03:39.626Z,17.89
2022-10-28T08:06:17.825Z,17.96
2022-10-28T08:08:48.773Z,18.05
2022-10-28T08:11:19.624Z,18.38
2022-10-28T08:13:48.676Z,18.67
2022-10-28T08:16:17.522Z,18.38
2022-10-28T08:18:46.666Z,18.04
2022-10-28T08:21:16.243Z,17.62
2022-10-28T08:23:47.814Z,16.35
2022-10-28T08:26:17.252Z,14.44
2022-10-28T08:28:45.976Z,13.18
2022-10-28T08:31:14.618Z,12.45
2022-10-28T08:33:45.878Z,12.15
2022-10-28T08:36:16.856Z,11.93
2022-10-28T08:38:47.468Z,11.87
2022-10-28T08:41:31.231Z,11.98
2022-10-28T08:44:31.521Z,12.04
2022-10-28T08:47:27.664Z,11.44
2022-10-28T08:50:03.248Z,10.46
2022-10-28T08:53:04.066Z,9.60
2022-10-28T08:55:46.354Z,8.83
2022-10-28T08:58:31.593Z,8.17
2022-10-28T09:01:00.917Z,7.63
2022-10-28T09:03:39.156Z,7.21
2022-10-28T09:06:10.130Z,6.96
2022-10-28T09:08:42.866Z,6.81
2022-10-28T09:11:11.482Z,6.62
2022-10-28T09:14:07.902Z,6.41
2022-10-28T09:17:07.578Z,6.29
2022-10-28T09:19:50.479Z,6.13
2022-10-28T09:22:37.237Z,6.04
2022-10-28T09:25:10.535Z,5.94
2022-10-28T09:27:54.093Z,5.83
2022-10-28T09:30:32.471Z,5.65
2022-10-28T09:33:26.012Z,5.58
2022-10-28T09:35:57.115Z,5.54
2022-10-28T09:38:33.958Z,5.53
2022-10-28T09:41:08.381Z,5.47
2022-10-28T09:43:43.645Z,5.41
2022-10-28T09:46:17.076Z,5.32
2022-10-28T09:48:51.825Z,5.27
2022-10-28T09:51:55.990Z,5.13
2022-10-28T09:54:35.607Z,5.01
2022-10-28T09:57:05.786Z,4.91
2022-10-28T09:59:35.348Z,4.84
2022-10-28T10:02:05.549Z,4.80
2022-10-28T10:04:36.237Z,4.74
2022-10-28T10:07:09.129Z,4.73
2022-10-28T10:09:39.725Z,4.70
2022-10-28T10:12:13.358Z,4.63
2022-10-28T10:14:49.926Z,4.52
2022-10-28T10:17:45.637Z,4.38
2022-10-28T10:20:19.716Z,4.37
2022-10-28T10:22:50.164Z,4.32
2022-10-28T10:25:19.183Z,4.25
2022-10-28T10:28:05.552Z,4.18
2022-10-28T10:30:46.994Z,4.13
2022-10-28T10:33:31.974Z,4.08
2022-10-28T10:36:16.352Z,3.95
2022-10-28T10:38:54.536Z,3.81
2022-10-28T10:41:43.738Z,3.63
2022-10-28T10:44:36.233Z,3.59
2022-10-28T10:47:06.239Z,3.52
2022-10-28T10:49:36.456Z,3.45
2022-10-28T10:52:08.500Z,3.39
2022-10-28T10:54:38.829Z,3.33
2022-10-28T10:57:21.445Z,3.33
2022-10-28T10:59:54.133Z,3.30
2022-10-28T11:02:32.320Z,3.24
2022-10-28T11:05:07.640Z,3.14
2022-10-28T11:07:39.332Z,3.15
2022-10-28T11:10:19.863Z,3.07
2022-10-28T11:13:00.453Z,3.00
2022-10-28T11:15:31.450Z,2.95
2022-10-28T11:18:17.454Z,2.91
2022-10-28T11:21:00.684Z,2.86
2022-10-28T11:23:32.299Z,2.84
2022-10-28T11:26:06.522Z,2.79
2022-10-28T11:28:47.008Z,2.82
2022-10-28T11:31:39.071Z,2.82
2022-10-28T11:34:28.797Z,2.81
2022-10-28T11:37:26.320Z,2.70
2022-10-28T11:40:25.903Z,2.74
2022-10-28T11:43:21.746Z,2.79
2022-10-28T11:46:00.361Z,2.82
2022-10-28T11:48:50.620Z,2.85
2022-10-28T11:51:37.809Z,2.87
2022-10-28T11:54:28.100Z,2.93
2022-10-28T11:57:11.813Z,2.98
2022-10-28T12:00:03.958Z,3.01
2022-10-28T12:03:05.359Z,3.02
2022-10-28T12:05:41.867Z,2.98
2022-10-28T12:08:13.504Z,3.01
2022-10-28T12:11:06.419Z,3.01
2022-10-28T12:13:54.272Z,3.01
2022-10-28T12:16:46.028Z,2.98
2022-10-28T12:19:26.340Z,3.00
2022-10-28T12:22:07.265Z,3.00
2022-10-28T12:24:39.093Z,3.00
2022-10-28T12:27:34.435Z,2.98
2022-10-28T12:30:34.121Z,2.95
2022-10-28T12:33:35.775Z,2.91
2022-10-28T12:36:04.407Z,2.92
2022-10-28T12:38:58.830Z,2.88
2022-10-28T12:41:34.255Z,2.70
2022-10-28T12:44:10.152Z,2.77
2022-10-28T12:47:15.287Z,2.79
2022-10-28T12:50:01.132Z,2.80
2022-10-28T12:52:49.362Z,2.79
2022-10-28T12:55:38.641Z,2.76
2022-10-28T12:58:17.989Z,2.65
2022-10-28T13:00:54.951Z,2.62
2022-10-28T13:03:24.063Z,2.59
2022-10-28T13:06:11.624Z,2.58
2022-10-28T13:08:58.800Z,2.63
2022-10-28T13:11:45.637Z,2.69
2022-10-28T13:14:30.649Z,2.74
2022-10-28T13:17:12.184Z,2.77
2022-10-28T13:19:49.840Z,2.79
2022-10-28T13:22:53.594Z,2.79
2022-10-28T13:25:41.749Z,2.79
2022-10-28T13:28:18.877Z,2.77
2022-10-28T13:30:58.260Z,2.81
2022-10-28T13:33:31.472Z,2.87
2022-10-28T13:36:20.084Z,2.85
2022-10-28T13:38:55.603Z,2.84
2022-10-28T13:41:37.380Z,2.80
2022-10-28T13:44:23.132Z,2.83
2022-10-28T13:47:23.662Z,2.87
2022-10-28T13:50:11.351Z,2.86
2022-10-28T13:52:42.265Z,2.83
2022-10-28T13:55:43.154Z,2.86
2022-10-28T13:58:27.305Z,2.83
2022-10-28T14:00:56.502Z,2.80
2022-10-28T14:03:27.612Z,2.81
2022-10-28T14:06:01.215Z,2.78
2022-10-28T14:08:39.177Z,2.77
2022-10-28T14:15:04.118Z,2.73
2022-10-28T14:17:40.504Z,2.69
2022-10-28T14:20:24.342Z,2.67
2022-10-28T14:22:54.834Z,2.64
2022-10-28T14:25:42.102Z,2.57
2022-10-28T14:28:32.158Z,2.52
2022-10-28T14:31:13.131Z,2.44
2022-10-28T14:33:45.001Z,2.38
2022-10-28T14:36:20.069Z,2.27
2022-10-28T14:39:07.282Z,2.22
2022-10-28T14:41:48.608Z,2.15
2022-10-28T14:44:29.345Z,2.13
2022-10-28T14:47:22.579Z,2.12
2022-10-28T14:50:19.299Z,2.14
2022-10-28T14:52:50.399Z,2.15
2022-10-28T14:55:26.679Z,2.11
2022-10-28T14:57:55.730Z,2.18
2022-10-28T15:00:26.776Z,2.18
2022-10-28T15:02:56.293Z,2.21
2022-10-28T15:05:31.213Z,2.22
2022-10-28T15:08:04.375Z,2.24
2022-10-28T15:10:34.767Z,2.24
2022-10-28T15:13:04.883Z,2.17
2022-10-28T15:15:43.135Z,2.10
2022-10-28T15:18:26.367Z,1.82
2022-10-28T15:21:17.242Z,2.12
2022-10-28T15:23:59.239Z,1.99
2022-10-28T15:26:28.580Z,2.04
2022-10-28T15:28:57.617Z,2.06
2022-10-28T15:31:26.685Z,1.90
2022-10-28T15:33:55.897Z,2.15
2022-10-28T15:36:27.289Z,2.14
2022-10-28T15:39:16.604Z,2.10
2022-10-28T15:41:49.913Z,2.09
2022-10-28T15:44:38.713Z,2.06
2022-10-28T15:47:30.419Z,2.01
2022-10-28T15:50:17.748Z,2.01
2022-10-28T15:52:49.183Z,1.99
2022-10-28T15:55:26.658Z,2.00
2022-10-28T15:58:32.631Z,1.90
2022-10-28T16:01:03.299Z,1.93
2022-10-28T16:03:41.552Z,1.90
2022-10-28T16:06:26.840Z,1.87
2022-10-28T16:09:14.937Z,1.88
2022-10-28T16:11:51.270Z,1.76
2022-10-28T16:14:32.943Z,1.86
2022-10-28T16:17:15.319Z,1.89
2022-10-28T16:20:00.890Z,1.90
2022-10-28T16:22:36.583Z,1.92
2022-10-28T16:25:17.484Z,1.94
2022-10-28T16:27:46.485Z,1.96
2022-10-28T16:30:16.312Z,1.96
2022-10-28T16:32:49.790Z,1.92
2022-10-28T16:35:23.150Z,1.95
2022-10-28T16:37:55.810Z,1.94
2022-10-28T16:43:18.416Z,1.96
2022-10-28T16:45:48.727Z,2.05
2022-10-28T16:48:19.644Z,2.08
2022-10-28T16:51:01.515Z,2.11
2022-10-28T16:53:30.539Z,2.13
2022-10-28T16:56:02.360Z,2.17
2022-10-28T16:58:31.748Z,2.15
2022-10-28T17:01:02.054Z,2.16
2022-10-28T17:03:31.088Z,2.15
2022-10-28T17:06:00.062Z,2.13
2022-10-28T17:08:56.507Z,2.15
2022-10-28T17:11:18.149Z,2.12
2022-10-28T17:13:47.161Z,2.04
2022-10-28T17:16:16.221Z,2.03
2022-10-28T17:18:45.554Z,2.03
2022-10-28T17:21:14.530Z,2.01
2022-10-28T17:23:43.525Z,1.96
2022-10-28T17:26:12.452Z,1.99
2022-10-28T17:28:41.321Z,1.97
2022-10-28T17:31:11.480Z,1.94
2022-10-28T17:33:40.485Z,1.95
2022-10-28T17:36:10.015Z,1.94
2022-10-28T17:38:38.882Z,1.92
2022-10-28T17:41:07.798Z,1.90
2022-10-28T17:43:36.668Z,1.86
2022-10-28T17:46:07.275Z,1.85
2022-10-28T17:48:36.281Z,1.85
2022-10-28T17:51:05.271Z,1.81
2022-10-28T17:53:34.623Z,1.77
2022-10-28T17:56:06.112Z,1.75
2022-10-28T17:58:35.135Z,1.69
2022-10-28T18:01:09.670Z,1.68
2022-10-28T18:03:39.316Z,1.64
2022-10-28T18:06:17.564Z,1.67
2022-10-28T18:08:46.659Z,1.68
2022-10-28T18:11:17.420Z,1.61
2022-10-28T18:13:49.619Z,1.63
2022-10-28T18:16:21.267Z,1.63
2022-10-28T18:18:51.431Z,1.63
2022-10-28T18:21:20.788Z,1.59
2022-10-28T18:23:53.865Z,1.61
2022-10-28T18:26:22.815Z,1.64
2022-10-28T18:28:51.774Z,1.65
2022-10-28T18:31:21.167Z,1.70
2022-10-28T18:33:50.827Z,1.75
2022-10-28T18:36:22.816Z,1.76
2022-10-28T18:38:52.518Z,1.77
2022-10-28T18:41:27.397Z,1.74
2022-10-28T18:44:01.551Z,1.78
2022-10-28T18:46:32.639Z,1.74
2022-10-28T18:49:02.170Z,1.80
2022-10-28T18:51:31.285Z,1.80
2022-10-28T18:54:00.496Z,1.82
2022-10-28T18:56:29.975Z,1.85
2022-10-28T18:58:59.553Z,1.84
2022-10-28T19:01:30.266Z,1.87
2022-10-28T19:04:01.530Z,1.85
2022-10-28T19:06:33.282Z,1.81
2022-10-28T19:09:04.394Z,1.77
2022-10-28T19:11:35.104Z,1.74
2022-10-28T19:14:06.568Z,1.73
2022-10-28T19:16:35.912Z,1.74
2022-10-28T19:19:06.054Z,1.75
2022-10-28T19:21:35.460Z,1.59
2022-10-28T19:24:05.889Z,1.69
2022-10-28T19:26:35.509Z,1.66
2022-10-28T19:29:06.047Z,1.64
2022-10-28T19:31:37.700Z,1.45
2022-10-28T19:34:06.787Z,1.57
2022-10-28T19:36:36.126Z,1.53
2022-10-28T19:39:05.338Z,1.49
2022-10-28T19:41:34.416Z,1.47
2022-10-28T19:44:04.421Z,1.47
2022-10-28T19:46:35.826Z,1.51
2022-10-28T19:49:06.722Z,1.39
2022-10-28T19:51:38.424Z,1.52
2022-10-28T19:54:11.149Z,1.54
2022-10-28T19:56:40.475Z,1.52
2022-10-28T19:59:09.466Z,1.54
2022-10-28T20:01:40.819Z,1.56
2022-10-28T20:04:11.016Z,1.55
2022-10-28T20:06:41.598Z,1.56
2022-10-28T20:09:10.558Z,1.56
2022-10-28T20:11:40.688Z,1.57
2022-10-28T20:14:12.939Z,1.56
2022-10-28T20:16:43.310Z,1.52
2022-10-28T20:19:13.196Z,1.46
2022-10-28T20:21:42.072Z,1.43
2022-10-28T20:24:11.072Z,1.39
2022-10-28T20:26:40.145Z,1.36
2022-10-28T20:29:10.389Z,1.39
2022-10-28T20:31:39.541Z,1.42
2022-10-28T20:34:09.105Z,1.44
2022-10-28T20:36:40.517Z,1.42
2022-10-28T20:39:23.538Z,1.41
2022-10-28T20:41:52.675Z,1.37
2022-10-28T20:44:22.182Z,1.36
2022-10-28T20:46:51.588Z,1.31
2022-10-28T20:49:20.500Z,1.30
2022-10-28T20:51:50.332Z,1.29
2022-10-28T20:54:19.647Z,1.30
2022-10-28T20:56:48.513Z,1.30
2022-10-28T20:59:17.515Z,1.33
2022-10-28T21:01:47.442Z,1.29
2022-10-28T21:04:17.059Z,1.30
2022-10-28T21:06:45.933Z,1.35
2022-10-28T21:09:14.879Z,1.33
2022-10-28T21:11:46.079Z,1.30
2022-10-28T21:14:14.954Z,1.26
2022-10-28T21:16:43.896Z,1.27
2022-10-28T21:19:12.938Z,1.21
2022-10-28T21:21:42.014Z,1.21
2022-10-28T21:24:11.021Z,1.20
2022-10-28T21:26:40.056Z,1.15
2022-10-28T21:29:08.959Z,1.10
2022-10-28T21:31:37.897Z,1.06
2022-10-28T21:34:08.416Z,1.04
2022-10-28T21:36:37.743Z,0.95
2022-10-28T21:39:06.813Z,0.89
2022-10-28T21:41:35.820Z,0.86
2022-10-28T21:44:06.902Z,0.80
2022-10-28T21:46:35.860Z,0.76
2022-10-28T21:49:04.831Z,0.78
2022-10-28T21:51:33.741Z,0.77
2022-10-28T21:54:02.660Z,0.75
2022-10-28T21:56:31.568Z,0.81
2022-10-28T21:59:01.668Z,0.81
2022-10-28T22:01:30.930Z,0.72
2022-10-28T22:04:00.169Z,0.79
2022-10-28T22:06:29.194Z,0.77
2022-10-28T22:08:59.885Z,0.72
2022-10-28T22:11:28.756Z,0.71
2022-10-28T22:14:00.585Z,0.65
2022-10-28T22:16:31.757Z,0.62
2022-10-28T22:19:02.257Z,0.57
2022-10-28T22:21:34.096Z,0.54
2022-10-28T22:24:02.961Z,0.47
2022-10-28T22:26:33.236Z,0.43
2022-10-28T22:29:02.297Z,0.33
2022-10-28T22:31:33.000Z,0.25
2022-10-28T22:34:02.429Z,0.16
2022-10-28T22:36:31.894Z,0.08
2022-10-28T22:39:00.604Z,-0.01
2022-10-28T22:41:31.483Z,-0.04
2022-10-28T22:44:01.744Z,-0.12
2022-10-28T22:46:32.615Z,-0.18
2022-10-28T22:49:01.499Z,-0.17
2022-10-28T22:51:30.505Z,-0.20
2022-10-28T22:53:59.468Z,-0.21
2022-10-28T22:56:28.473Z,-0.26
2022-10-28T22:58:59.763Z,-0.27
2022-10-28T23:01:30.773Z,-0.30
2022-10-28T23:04:01.552Z,-0.36
2022-10-28T23:06:30.897Z,-0.40
2022-10-28T23:08:59.757Z,-0.41
2022-10-28T23:11:28.769Z,-0.44
2022-10-28T23:13:57.502Z,-0.45
2022-10-28T23:16:26.244Z,-0.48
2022-10-28T23:18:55.153Z,-0.54
2022-10-28T23:21:25.875Z,-0.56
2022-10-28T23:23:59.523Z,-0.58
2022-10-28T23:26:30.196Z,-0.61
2022-10-28T23:29:00.653Z,-0.65
2022-10-28T23:31:29.763Z,-0.71
2022-10-28T23:33:59.765Z,-0.70
2022-10-28T23:36:28.478Z,-0.74
2022-10-28T23:38:58.120Z,-0.75
2022-10-28T23:41:26.990Z,-0.77
2022-10-28T23:43:55.825Z,-0.77
2022-10-28T23:46:25.591Z,-0.81
2022-10-28T23:48:54.486Z,-0.86
2022-10-28T23:51:23.312Z,-0.85
2022-10-28T23:53:52.160Z,-0.86
2022-10-28T23:56:20.987Z,-0.86
2022-10-28T23:58:49.786Z,-0.89
